Tuesday, January 17, 2017, 8:33 PM EST

KW99, Petersburg, Grant County Airport

Location: Petersburg, WV, United States Lat: 38.983
Local Time: 8:33 PM EST ( 1:33 GMT) Lon: -79.133
Time Zone: US/Eastern Elev: 961 ft

Show me the last for .
Show Decoded

2017-01-17 20:10 METAR KW99 180110Z AUTO 03004KT 10SM BKN055 BKN065 13/09 A2988 RMK AO2 T01260090
                 =
2017-01-17 19:50 METAR KW99 180050Z AUTO 13003KT 10SM OVC060 14/09 A2988 RMK AO2 T01350092 =
2017-01-17 19:30 METAR KW99 180030Z AUTO 10008KT 10SM BKN060 BKN070 12/09 A2988 RMK AO2 T01170090
                 =
2017-01-17 19:10 METAR KW99 180010Z AUTO 35004KT 10SM BKN050 15/10 A2989 RMK AO2 T01460096 =
2017-01-17 18:50 METAR KW99 172350Z AUTO 06003KT 10SM BKN050 14/10 A2989 RMK AO2 60003 T01370101
                 10140 20072 =
2017-01-17 18:30 METAR KW99 172330Z AUTO 01005KT 10SM BKN050 13/10 A2990 RMK AO2 T01300103 =
2017-01-17 18:10 METAR KW99 172310Z AUTO 10004KT 10SM BKN050 13/11 A2988 RMK AO2 T01300106 =
2017-01-17 17:50 METAR KW99 172250Z AUTO 06006KT 10SM OVC050 13/11 A2987 RMK AO2 T01300108 =
2017-01-17 17:30 METAR KW99 172230Z AUTO 09007KT 10SM BKN048 OVC060 13/10 A2988 RMK AO2 T01260104
                 =
2017-01-17 17:10 METAR KW99 172210Z AUTO 04004KT 10SM BKN048 OVC060 12/10 A2989 RMK AO2 T01220103
                 =
2017-01-17 16:50 METAR KW99 172150Z AUTO 10009KT 10SM BKN048 OVC060 12/11 A2989 RMK AO2 T01240108
                 =
2017-01-17 16:30 METAR KW99 172130Z AUTO 00000KT 10SM OVC048 13/11 A2989 RMK AO2 T01260108 =
2017-01-17 16:10 METAR KW99 172110Z AUTO 06004KT 10SM BKN048 OVC060 13/11 A2990 RMK AO2 T01260110
                 =
2017-01-17 15:50 METAR KW99 172050Z AUTO 09003KT 10SM BKN046 OVC050 13/11 A2990 RMK AO2 60003
                 T01250109 =
2017-01-17 15:30 METAR KW99 172030Z AUTO 07004KT 5SM BR BKN046 OVC050 11/10 A2990 RMK AO2
                 T01120102 =
2017-01-17 15:10 METAR KW99 172010Z AUTO 00000KT 3SM BR BKN045 OVC049 10/09 A2991 RMK AO2
                 T00990092 =
2017-01-17 14:50 METAR KW99 171950Z AUTO 00000KT 4SM BR SCT041 OVC049 09/08 A2992 RMK AO2
                 T00890079 =
2017-01-17 14:30 METAR KW99 171930Z AUTO 00000KT 4SM BR BKN037 OVC048 09/08 A2993 RMK AO2
                 T00860076 =
2017-01-17 14:10 METAR KW99 171910Z AUTO 00000KT 4SM -DZ BKN037 OVC043 08/07 A2993 RMK AO2
                 T00800070 =
2017-01-17 13:50 METAR KW99 171850Z AUTO 00000KT 3SM -RA SCT039 BKN047 OVC060 08/07 A2994 RMK AO2
                 P0002 T00770069 =
2017-01-17 13:30 METAR KW99 171830Z AUTO 00000KT 3SM RA SCT041 BKN047 OVC060 08/07 A2995 RMK AO2
                 P0002 T00760066 =
2017-01-17 13:10 METAR KW99 171810Z AUTO 00000KT 5SM -RA BKN042 OVC047 07/06 A2996 RMK AO2
                 T00720060 =
2017-01-17 12:50 METAR KW99 171750Z AUTO 00000KT 5SM BR OVC042 07/06 A2997 RMK AO2 60006
                 T00720060 10073 20042 =
2017-01-17 12:30 METAR KW99 171730Z AUTO 00000KT 5SM BR OVC044 07/06 A2998 RMK AO2 T00680055 =
2017-01-17 12:10 METAR KW99 171710Z AUTO 00000KT 5SM BR OVC044 07/06 A3000 RMK AO2 T00660055 =
2017-01-17 11:50 METAR KW99 171650Z AUTO 00000KT 5SM BR OVC048 07/05 A3001 RMK AO2 P0001
                 T00650051 =
2017-01-17 11:30 METAR KW99 171630Z AUTO 00000KT 4SM -RA SCT042 BKN050 OVC070 06/05 A3004 RMK AO2
                 P0001 T00590046 =
2017-01-17 11:10 METAR KW99 171610Z AUTO 00000KT 4SM -RA BKN044 BKN060 OVC090 06/04 A3007 RMK AO2
                 T00550041 =
2017-01-17 10:50 METAR KW99 171550Z AUTO 00000KT 4SM RA OVC044 05/04 A3007 RMK AO2 T00540040 =
2017-01-17 10:30 METAR KW99 171530Z AUTO 00000KT 5SM BR OVC048 05/04 A3009 RMK AO2 LTG DSNT NW
                 T00540037 =
2017-01-17 10:10 METAR KW99 171510Z AUTO 00000KT 5SM BR OVC050 05/04 A3009 RMK AO2 T00510037 =
2017-01-17 09:50 METAR KW99 171450Z AUTO 00000KT 5SM BR BKN060 OVC070 05/04 A3010 RMK AO2 60004
                 T00510039 =
2017-01-17 09:30 METAR KW99 171430Z AUTO 00000KT 7SM SCT070 BKN090 05/03 A3011 RMK AO2 T00470032
                 =
2017-01-17 09:10 METAR KW99 171410Z AUTO 00000KT 7SM OVC100 05/03 A3011 RMK AO2 T00460031 =
2017-01-17 08:50 METAR KW99 171350Z AUTO 00000KT 5SM BR SCT039 BKN090 OVC120 04/03 A3013 RMK AO2
                 P0003 T00440033 =
2017-01-17 08:30 METAR KW99 171330Z AUTO 00000KT 4SM -RA SCT037 BKN080 OVC090 04/03 A3013 RMK AO2
                 P0002 T00420034 =
2017-01-17 08:10 METAR KW99 171310Z AUTO 00000KT 4SM -RA BKN075 OVC090 04/03 A3014 RMK AO2 P0001
                 T00420031 =
2017-01-17 07:50 METAR KW99 171250Z AUTO 00000KT 5SM -RA SCT055 SCT065 OVC075 05/03 A3015 RMK AO2
                 P0001 T00450031 =
2017-01-17 07:30 METAR KW99 171230Z AUTO 00000KT 7SM -RA OVC075 04/03 A3015 RMK AO2 T00440028 =
2017-01-17 07:10 METAR KW99 171210Z AUTO 00000KT 7SM -RA BKN075 OVC090 04/03 A3015 RMK AO2
                 T00430028 =
2017-01-17 06:50 METAR KW99 171150Z AUTO 00000KT 7SM -DZ SCT075 OVC100 04/03 A3014 RMK AO2
                 T00440029 10044 20040 =
2017-01-17 06:30 METAR KW99 171130Z AUTO 00000KT 7SM OVC090 04/03 A3015 RMK AO2 T00430030 =
2017-01-17 06:10 METAR KW99 171110Z AUTO 00000KT 7SM OVC090 04/03 A3014 RMK AO2 T00420026 =
2017-01-17 05:50 METAR KW99 171050Z AUTO 00000KT 7SM OVC090 04/03 A3014 RMK AO2 T00420027 =
2017-01-17 05:35 METAR KW99 171035Z AUTO 00000KT 7SM OVC090 04/03 A3015 RMK AO2 T00410029 =
2017-01-17 05:10 METAR KW99 171010Z AUTO 00000KT 7SM BKN090 OVC120 04/03 A3016 RMK AO2 T00420030
                 =
2017-01-17 04:50 METAR KW99 170950Z AUTO 00000KT 7SM OVC090 04/03 A3017 RMK AO2 LTG DSNT NW
                 T00410027 =
2017-01-17 04:30 METAR KW99 170930Z AUTO 00000KT 7SM OVC090 04/03 A3017 RMK AO2 LTG DSNT NW
                 T00400029 =
2017-01-17 04:10 METAR KW99 170910Z AUTO 00000KT 7SM SCT090 OVC120 04/03 A3018 RMK AO2 T00410028
                 =
2017-01-17 03:50 METAR KW99 170850Z AUTO 00000KT 7SM SCT100 OVC120 04/03 A3019 RMK AO2 T00400027
                 =
2017-01-17 03:30 METAR KW99 170830Z AUTO 00000KT 7SM BKN080 BKN100 OVC120 04/03 A3018 RMK AO2
                 T00410030 =
2017-01-17 03:10 METAR KW99 170810Z AUTO 00000KT 7SM BKN080 OVC100 04/03 A3020 RMK AO2 T00410030
                 =
2017-01-17 02:50 METAR KW99 170750Z AUTO 00000KT 7SM OVC100 04/03 A3022 RMK AO2 T00400027 =
2017-01-17 02:30 METAR KW99 170730Z AUTO 00000KT 7SM -DZ SCT070 BKN085 OVC110 04/03 A3021 RMK AO2
                 T00400026 =
2017-01-17 02:10 METAR KW99 170710Z AUTO 00000KT 5SM -RA BKN070 OVC085 04/03 A3021 RMK AO2
                 T00410025 =
2017-01-17 01:50 METAR KW99 170650Z AUTO 00000KT 7SM BKN090 BKN120 04/03 A3021 RMK AO2 T00400025
                 =
2017-01-17 01:30 METAR KW99 170630Z AUTO 00000KT 7SM CLR 04/02 A3021 RMK AO2 T00400023 =
2017-01-17 01:10 METAR KW99 170610Z AUTO 00000KT 7SM SCT080 04/02 A3022 RMK AO2 T00400023 =
2017-01-17 00:50 METAR KW99 170550Z AUTO 00000KT 7SM SCT070 OVC080 04/02 A3022 RMK AO2 T00440023
                 10060 20036 400960032 =
2017-01-17 00:30 METAR KW99 170530Z AUTO 00000KT 7SM BKN070 OVC080 04/03 A3023 RMK AO2 T00430028
                 =
2017-01-17 00:10 METAR KW99 170510Z AUTO 00000KT 7SM SCT070 BKN080 04/03 A3024 RMK AO2 T00400025
                 =
2017-01-16 23:50 METAR KW99 170450Z AUTO 00000KT 7SM SCT075 BKN090 04/03 A3024 RMK AO2 T00400025
                 =
2017-01-16 23:30 METAR KW99 170430Z AUTO 00000KT 7SM SCT080 OVC090 04/03 A3026 RMK AO2 T00400027
                 =
2017-01-16 23:10 METAR KW99 170410Z AUTO 00000KT 7SM BKN090 04/02 A3026 RMK AO2 T00360023 =
2017-01-16 22:50 METAR KW99 170350Z AUTO 00000KT 7SM SCT090 04/02 A3027 RMK AO2 T00400022 =
2017-01-16 22:30 METAR KW99 170330Z AUTO 00000KT 7SM CLR 04/02 A3027 RMK AO2 T00410023 =
2017-01-16 22:10 METAR KW99 170310Z AUTO 00000KT 7SM CLR 04/02 A3028 RMK AO2 T00400023 =
2017-01-16 21:50 METAR KW99 170250Z AUTO 00000KT 7SM SCT095 04/03 A3028 RMK AO2 T00420026 =
2017-01-16 21:30 METAR KW99 170230Z AUTO 00000KT 7SM BKN095 05/03 A3028 RMK AO2 T00450029 =
2017-01-16 21:10 METAR KW99 170210Z AUTO 00000KT 7SM SCT065 SCT095 05/03 A3029 RMK AO2 T00450030
                 =
2017-01-16 20:50 METAR KW99 170150Z AUTO 00000KT 7SM SCT065 SCT095 05/03 A3029 RMK AO2 T00470026
                 =

Support USWX by starting your Amazon purchase here.